Terminal Aerodrome Forecast
Issued by NWS

Current Version | Previous Version | Text Only | Print | Product List | Glossary Off
Versions: 1 2 3 4 5 6 7 8 9 10 11 12 13 14 15 16 17

619
FTUS41 KILN 191131
TAFLUK
TAF
KLUK 191131Z 1912/2012 31011G23KT P6SM OVC035
      TEMPO 1912/1914 5SM -SHSN OVC018
     FM191500 34014G24KT P6SM BKN026
     FM191800 33014G24KT P6SM BKN035
     FM192000 32012G18KT P6SM SCT250
     FM200000 34006KT P6SM SKC
     FM200800 01004KT P6SM SKC=

USA.gov is the U.S. government's official web portal to all federal, state and local government web resources and services.